Terminal Aerodrome Forecast
Issued by NWS Omaha/Valley, NE

Home | Current Version | Previous Version | Text Only | Print | Product List | Glossary On
Versions: 1 2 3 4 5 6 7 8 9 10 11 12 13 14 15 16 17 18
000
FTUS43 KOAX 200908 AAB
TAFOMA
TAF AMD
KOMA 200908Z 2009/2106 15010KT P6SM VCSH SCT025 OVC100
      WS020/21033KT
      TEMPO 2010/2012 3SM SHRA BR OVC008
     FM201200 17012KT 5SM -SHRA BR OVC008
     FM201600 17012KT P6SM BKN015
     FM201900 22012KT P6SM BKN050=

USA.gov is the U.S. government's official web portal to all federal, state and local government web resources and services.